sensor_id;sensor_type;location;lat;lon;timestamp;temperature;humidity
23715;DHT22;12036;50.858;4.472;2023-04-25T00:01:48;9.10;99.90
23715;DHT22;12036;50.858;4.472;2023-04-25T00:04:13;9.10;99.90
23715;DHT22;12036;50.858;4.472;2023-04-25T00:06:39;9.10;99.90
23715;DHT22;12036;50.858;4.472;2023-04-25T00:09:06;9.10;99.90
23715;DHT22;12036;50.858;4.472;2023-04-25T00:11:36;9.20;99.90
23715;DHT22;12036;50.858;4.472;2023-04-25T00:14:03;9.10;99.90
23715;DHT22;12036;50.858;4.472;2023-04-25T00:16:29;9.10;99.90
23715;DHT22;12036;50.858;4.472;2023-04-25T00:18:59;9.10;99.90
23715;DHT22;12036;50.858;4.472;2023-04-25T00:21:24;9.10;99.90
23715;DHT22;12036;50.858;4.472;2023-04-25T00:23:52;9.10;99.90
23715;DHT22;12036;50.858;4.472;2023-04-25T00:26:18;9.10;99.90
23715;DHT22;12036;50.858;4.472;2023-04-25T00:28:44;9.10;99.90
23715;DHT22;12036;50.858;4.472;2023-04-25T00:31:09;9.10;99.90
23715;DHT22;12036;50.858;4.472;2023-04-25T00:33:35;9.10;99.90
23715;DHT22;12036;50.858;4.472;2023-04-25T00:36:01;9.10;99.90
23715;DHT22;12036;50.858;4.472;2023-04-25T00:38:27;9.10;99.90
23715;DHT22;12036;50.858;4.472;2023-04-25T00:40:52;9.10;99.90
23715;DHT22;12036;50.858;4.472;2023-04-25T00:43:18;9.10;99.90
23715;DHT22;12036;50.858;4.472;2023-04-25T00:45:44;9.10;99.90
23715;DHT22;12036;50.858;4.472;2023-04-25T00:48:14;9.00;99.90
23715;DHT22;12036;50.858;4.472;2023-04-25T00:50:40;9.00;99.90
23715;DHT22;12036;50.858;4.472;2023-04-25T00:53:06;8.90;99.90
23715;DHT22;12036;50.858;4.472;2023-04-25T00:55:32;8.90;99.90
23715;DHT22;12036;50.858;4.472;2023-04-25T00:58:00;8.80;99.90
23715;DHT22;12036;50.858;4.472;2023-04-25T01:00:25;8.70;99.90
23715;DHT22;12036;50.858;4.472;2023-04-25T01:02:51;8.70;99.90
23715;DHT22;12036;50.858;4.472;2023-04-25T01:05:17;8.70;99.90
23715;DHT22;12036;50.858;4.472;2023-04-25T01:07:44;8.60;99.90
23715;DHT22;12036;50.858;4.472;2023-04-25T01:10:10;8.60;99.90
23715;DHT22;12036;50.858;4.472;2023-04-25T01:12:36;8.60;99.90
23715;DHT22;12036;50.858;4.472;2023-04-25T01:15:02;8.60;99.90
23715;DHT22;12036;50.858;4.472;2023-04-25T01:17:28;8.50;99.90
23715;DHT22;12036;50.858;4.472;2023-04-25T01:19:54;8.50;99.90
23715;DHT22;12036;50.858;4.472;2023-04-25T01:22:21;8.50;99.90
23715;DHT22;12036;50.858;4.472;2023-04-25T01:24:47;8.50;99.90
23715;DHT22;12036;50.858;4.472;2023-04-25T01:27:12;8.50;99.90
23715;DHT22;12036;50.858;4.472;2023-04-25T01:29:38;8.50;99.90
23715;DHT22;12036;50.858;4.472;2023-04-25T01:32:05;8.50;99.90
23715;DHT22;12036;50.858;4.472;2023-04-25T01:34:31;8.50;99.90
23715;DHT22;12036;50.858;4.472;2023-04-25T01:36:59;8.50;99.90
23715;DHT22;12036;50.858;4.472;2023-04-25T01:39:25;8.50;99.90
23715;DHT22;12036;50.858;4.472;2023-04-25T01:41:51;8.50;99.90
23715;DHT22;12036;50.858;4.472;2023-04-25T01:44:17;8.50;99.90
23715;DHT22;12036;50.858;4.472;2023-04-25T01:46:43;8.50;99.90
23715;DHT22;12036;50.858;4.472;2023-04-25T01:49:08;8.50;99.90
23715;DHT22;12036;50.858;4.472;2023-04-25T01:51:34;8.50;99.90
23715;DHT22;12036;50.858;4.472;2023-04-25T01:54:00;8.50;99.90
23715;DHT22;12036;50.858;4.472;2023-04-25T01:56:30;8.50;99.90
23715;DHT22;12036;50.858;4.472;2023-04-25T01:58:57;8.40;99.90
23715;DHT22;12036;50.858;4.472;2023-04-25T02:01:22;8.40;99.90
23715;DHT22;12036;50.858;4.472;2023-04-25T02:03:48;8.30;99.90
23715;DHT22;12036;50.858;4.472;2023-04-25T02:06:14;8.30;99.90
23715;DHT22;12036;50.858;4.472;2023-04-25T02:08:39;8.30;99.90
23715;DHT22;12036;50.858;4.472;2023-04-25T02:11:05;8.20;99.90
23715;DHT22;12036;50.858;4.472;2023-04-25T02:13:30;8.10;99.90
23715;DHT22;12036;50.858;4.472;2023-04-25T02:15:56;8.10;99.90
23715;DHT22;12036;50.858;4.472;2023-04-25T02:18:22;8.10;99.90
23715;DHT22;12036;50.858;4.472;2023-04-25T02:20:48;8.10;99.90
23715;DHT22;12036;50.858;4.472;2023-04-25T02:23:14;8.00;99.90
23715;DHT22;12036;50.858;4.472;2023-04-25T02:25:41;7.90;99.90
23715;DHT22;12036;50.858;4.472;2023-04-25T02:28:06;7.90;99.90
23715;DHT22;12036;50.858;4.472;2023-04-25T02:30:32;7.80;99.90
23715;DHT22;12036;50.858;4.472;2023-04-25T02:32:58;7.80;99.90
23715;DHT22;12036;50.858;4.472;2023-04-25T02:35:24;7.80;99.90
23715;DHT22;12036;50.858;4.472;2023-04-25T02:37:50;7.80;99.90
23715;DHT22;12036;50.858;4.472;2023-04-25T02:40:15;7.80;99.90
23715;DHT22;12036;50.858;4.472;2023-04-25T02:42:41;7.80;99.90
23715;DHT22;12036;50.858;4.472;2023-04-25T02:45:07;7.80;99.90
23715;DHT22;12036;50.858;4.472;2023-04-25T02:47:33;7.80;99.90
23715;DHT22;12036;50.858;4.472;2023-04-25T02:49:58;7.80;99.90
23715;DHT22;12036;50.858;4.472;2023-04-25T02:52:24;7.80;99.90
23715;DHT22;12036;50.858;4.472;2023-04-25T02:54:50;7.80;99.90
23715;DHT22;12036;50.858;4.472;2023-04-25T02:57:16;7.90;99.90
23715;DHT22;12036;50.858;4.472;2023-04-25T02:59:41;7.90;99.90
23715;DHT22;12036;50.858;4.472;2023-04-25T03:02:07;7.90;99.90
23715;DHT22;12036;50.858;4.472;2023-04-25T03:04:33;7.90;99.90
23715;DHT22;12036;50.858;4.472;2023-04-25T03:06:58;7.90;99.90
23715;DHT22;12036;50.858;4.472;2023-04-25T03:09:24;7.90;99.90
23715;DHT22;12036;50.858;4.472;2023-04-25T03:11:51;7.90;99.90
23715;DHT22;12036;50.858;4.472;2023-04-25T03:14:17;7.90;99.90
23715;DHT22;12036;50.858;4.472;2023-04-25T03:16:42;7.90;99.90
23715;DHT22;12036;50.858;4.472;2023-04-25T03:19:08;7.90;99.90
23715;DHT22;12036;50.858;4.472;2023-04-25T03:21:35;7.90;99.90
23715;DHT22;12036;50.858;4.472;2023-04-25T03:24:02;7.90;99.90
23715;DHT22;12036;50.858;4.472;2023-04-25T03:26:29;7.90;99.90
23715;DHT22;12036;50.858;4.472;2023-04-25T03:28:54;7.90;99.90
23715;DHT22;12036;50.858;4.472;2023-04-25T03:31:20;8.00;99.90
23715;DHT22;12036;50.858;4.472;2023-04-25T03:33:46;8.00;99.90
23715;DHT22;12036;50.858;4.472;2023-04-25T03:36:11;7.90;99.90
23715;DHT22;12036;50.858;4.472;2023-04-25T03:38:37;7.90;99.90
23715;DHT22;12036;50.858;4.472;2023-04-25T03:41:03;7.90;99.90
23715;DHT22;12036;50.858;4.472;2023-04-25T03:43:28;7.90;99.90
23715;DHT22;12036;50.858;4.472;2023-04-25T03:45:54;7.90;99.90
23715;DHT22;12036;50.858;4.472;2023-04-25T03:48:20;7.90;99.90
23715;DHT22;12036;50.858;4.472;2023-04-25T03:50:50;7.90;99.90
23715;DHT22;12036;50.858;4.472;2023-04-25T03:53:15;8.00;99.90
23715;DHT22;12036;50.858;4.472;2023-04-25T03:55:41;7.90;99.90
23715;DHT22;12036;50.858;4.472;2023-04-25T03:58:07;7.80;99.90
23715;DHT22;12036;50.858;4.472;2023-04-25T04:00:33;7.70;99.90
23715;DHT22;12036;50.858;4.472;2023-04-25T04:02:59;7.60;99.90
23715;DHT22;12036;50.858;4.472;2023-04-25T04:05:25;7.50;99.90
23715;DHT22;12036;50.858;4.472;2023-04-25T04:07:51;7.40;99.90
23715;DHT22;12036;50.858;4.472;2023-04-25T04:10:16;7.40;99.90
23715;DHT22;12036;50.858;4.472;2023-04-25T04:12:42;7.40;99.90
23715;DHT22;12036;50.858;4.472;2023-04-25T04:15:08;7.40;99.90
23715;DHT22;12036;50.858;4.472;2023-04-25T04:17:34;7.30;99.90
23715;DHT22;12036;50.858;4.472;2023-04-25T04:20:00;7.30;99.90
23715;DHT22;12036;50.858;4.472;2023-04-25T04:22:25;7.30;99.90
23715;DHT22;12036;50.858;4.472;2023-04-25T04:24:51;7.20;99.90
23715;DHT22;12036;50.858;4.472;2023-04-25T04:27:22;7.20;99.90
23715;DHT22;12036;50.858;4.472;2023-04-25T04:29:48;7.20;99.90
23715;DHT22;12036;50.858;4.472;2023-04-25T04:32:14;7.30;99.90
23715;DHT22;12036;50.858;4.472;2023-04-25T04:34:40;7.30;99.90
23715;DHT22;12036;50.858;4.472;2023-04-25T04:37:06;7.20;99.90
23715;DHT22;12036;50.858;4.472;2023-04-25T04:39:36;7.30;99.90
23715;DHT22;12036;50.858;4.472;2023-04-25T04:42:02;7.30;99.90
23715;DHT22;12036;50.858;4.472;2023-04-25T04:44:29;7.40;99.90
23715;DHT22;12036;50.858;4.472;2023-04-25T04:46:58;7.40;99.90
23715;DHT22;12036;50.858;4.472;2023-04-25T04:49:24;7.30;99.90
23715;DHT22;12036;50.858;4.472;2023-04-25T04:51:49;7.30;99.90
23715;DHT22;12036;50.858;4.472;2023-04-25T04:54:15;7.30;99.90
23715;DHT22;12036;50.858;4.472;2023-04-25T04:56:40;7.30;99.90
23715;DHT22;12036;50.858;4.472;2023-04-25T04:59:07;7.30;99.90
23715;DHT22;12036;50.858;4.472;2023-04-25T05:01:33;7.30;99.90
23715;DHT22;12036;50.858;4.472;2023-04-25T05:04:01;7.40;99.90
23715;DHT22;12036;50.858;4.472;2023-04-25T05:06:28;7.30;99.90
23715;DHT22;12036;50.858;4.472;2023-04-25T05:08:57;7.30;99.90
23715;DHT22;12036;50.858;4.472;2023-04-25T05:11:24;7.20;99.90
23715;DHT22;12036;50.858;4.472;2023-04-25T05:13:52;7.20;99.90
23715;DHT22;12036;50.858;4.472;2023-04-25T05:16:18;7.30;99.90
23715;DHT22;12036;50.858;4.472;2023-04-25T05:18:43;7.30;99.90
23715;DHT22;12036;50.858;4.472;2023-04-25T05:21:09;7.10;99.90
23715;DHT22;12036;50.858;4.472;2023-04-25T05:23:35;7.00;99.90
23715;DHT22;12036;50.858;4.472;2023-04-25T05:26:00;6.90;99.90
23715;DHT22;12036;50.858;4.472;2023-04-25T05:28:26;6.90;99.90
23715;DHT22;12036;50.858;4.472;2023-04-25T05:30:52;6.80;99.90
23715;DHT22;12036;50.858;4.472;2023-04-25T05:33:18;6.80;99.90
23715;DHT22;12036;50.858;4.472;2023-04-25T05:35:44;6.70;99.90
23715;DHT22;12036;50.858;4.472;2023-04-25T05:38:09;6.80;99.90
23715;DHT22;12036;50.858;4.472;2023-04-25T05:40:35;6.80;99.90
23715;DHT22;12036;50.858;4.472;2023-04-25T05:43:01;6.80;99.90
23715;DHT22;12036;50.858;4.472;2023-04-25T05:45:26;6.80;99.90
23715;DHT22;12036;50.858;4.472;2023-04-25T05:47:52;6.90;99.90
23715;DHT22;12036;50.858;4.472;2023-04-25T05:50:18;6.90;99.90
23715;DHT22;12036;50.858;4.472;2023-04-25T05:52:43;6.90;99.90
23715;DHT22;12036;50.858;4.472;2023-04-25T05:55:09;7.00;99.90
23715;DHT22;12036;50.858;4.472;2023-04-25T05:57:35;7.00;99.90
23715;DHT22;12036;50.858;4.472;2023-04-25T06:00:01;7.00;99.90
23715;DHT22;12036;50.858;4.472;2023-04-25T06:02:26;7.10;99.90
23715;DHT22;12036;50.858;4.472;2023-04-25T06:04:52;7.20;99.90
23715;DHT22;12036;50.858;4.472;2023-04-25T06:07:19;7.20;99.90
23715;DHT22;12036;50.858;4.472;2023-04-25T06:09:45;7.20;99.90
23715;DHT22;12036;50.858;4.472;2023-04-25T06:12:11;7.30;99.90
23715;DHT22;12036;50.858;4.472;2023-04-25T06:14:37;7.30;99.90
23715;DHT22;12036;50.858;4.472;2023-04-25T06:17:03;7.40;99.90
23715;DHT22;12036;50.858;4.472;2023-04-25T06:19:34;7.40;99.90
23715;DHT22;12036;50.858;4.472;2023-04-25T06:22:01;7.50;99.90
23715;DHT22;12036;50.858;4.472;2023-04-25T06:24:27;7.50;99.90
23715;DHT22;12036;50.858;4.472;2023-04-25T06:26:52;7.60;99.90
23715;DHT22;12036;50.858;4.472;2023-04-25T06:29:18;7.70;99.90
23715;DHT22;12036;50.858;4.472;2023-04-25T06:31:44;7.80;99.90
23715;DHT22;12036;50.858;4.472;2023-04-25T06:34:09;7.90;99.90
23715;DHT22;12036;50.858;4.472;2023-04-25T06:36:35;8.00;99.90
23715;DHT22;12036;50.858;4.472;2023-04-25T06:39:01;8.10;99.90
23715;DHT22;12036;50.858;4.472;2023-04-25T06:41:26;8.20;99.90
23715;DHT22;12036;50.858;4.472;2023-04-25T06:43:52;8.40;99.90
23715;DHT22;12036;50.858;4.472;2023-04-25T06:46:18;8.50;99.90
23715;DHT22;12036;50.858;4.472;2023-04-25T06:48:44;8.60;99.90
23715;DHT22;12036;50.858;4.472;2023-04-25T06:51:09;8.70;99.90
23715;DHT22;12036;50.858;4.472;2023-04-25T06:53:35;8.70;99.90
23715;DHT22;12036;50.858;4.472;2023-04-25T06:56:01;8.70;99.90
23715;DHT22;12036;50.858;4.472;2023-04-25T06:58:27;8.70;99.90
23715;DHT22;12036;50.858;4.472;2023-04-25T07:00:53;8.70;99.90
23715;DHT22;12036;50.858;4.472;2023-04-25T07:03:18;8.70;99.90
23715;DHT22;12036;50.858;4.472;2023-04-25T07:05:44;8.70;99.90
23715;DHT22;12036;50.858;4.472;2023-04-25T07:08:11;8.80;99.90
23715;DHT22;12036;50.858;4.472;2023-04-25T07:10:37;8.70;99.90
23715;DHT22;12036;50.858;4.472;2023-04-25T07:13:02;8.60;99.90
23715;DHT22;12036;50.858;4.472;2023-04-25T07:15:28;8.60;99.90
23715;DHT22;12036;50.858;4.472;2023-04-25T07:17:53;8.70;99.90
23715;DHT22;12036;50.858;4.472;2023-04-25T07:20:19;8.70;99.90
23715;DHT22;12036;50.858;4.472;2023-04-25T07:22:45;8.70;99.90
23715;DHT22;12036;50.858;4.472;2023-04-25T07:25:11;8.70;99.90
23715;DHT22;12036;50.858;4.472;2023-04-25T07:27:36;8.70;99.90
23715;DHT22;12036;50.858;4.472;2023-04-25T07:30:02;8.80;99.90
23715;DHT22;12036;50.858;4.472;2023-04-25T07:32:29;8.80;99.90
23715;DHT22;12036;50.858;4.472;2023-04-25T07:34:55;8.90;99.90
23715;DHT22;12036;50.858;4.472;2023-04-25T07:37:20;9.00;99.90
23715;DHT22;12036;50.858;4.472;2023-04-25T07:39:46;9.10;99.90
23715;DHT22;12036;50.858;4.472;2023-04-25T07:42:12;9.20;99.90
23715;DHT22;12036;50.858;4.472;2023-04-25T07:44:38;9.30;99.90
23715;DHT22;12036;50.858;4.472;2023-04-25T07:47:06;9.50;99.90
23715;DHT22;12036;50.858;4.472;2023-04-25T07:49:35;9.70;99.90
23715;DHT22;12036;50.858;4.472;2023-04-25T07:52:01;9.90;99.90
23715;DHT22;12036;50.858;4.472;2023-04-25T07:54:27;10.10;99.90
23715;DHT22;12036;50.858;4.472;2023-04-25T07:56:53;10.20;99.90
23715;DHT22;12036;50.858;4.472;2023-04-25T07:59:19;10.40;99.90
23715;DHT22;12036;50.858;4.472;2023-04-25T08:01:45;10.40;99.90
23715;DHT22;12036;50.858;4.472;2023-04-25T08:04:11;10.50;99.90
23715;DHT22;12036;50.858;4.472;2023-04-25T08:06:37;10.60;99.90
23715;DHT22;12036;50.858;4.472;2023-04-25T08:09:02;10.70;99.90
23715;DHT22;12036;50.858;4.472;2023-04-25T08:11:28;10.80;99.90
23715;DHT22;12036;50.858;4.472;2023-04-25T08:13:54;10.70;99.90
23715;DHT22;12036;50.858;4.472;2023-04-25T08:16:20;10.80;99.90
23715;DHT22;12036;50.858;4.472;2023-04-25T08:18:46;10.80;99.90
23715;DHT22;12036;50.858;4.472;2023-04-25T08:21:11;10.90;99.90
23715;DHT22;12036;50.858;4.472;2023-04-25T08:23:38;11.00;99.90
23715;DHT22;12036;50.858;4.472;2023-04-25T08:26:04;11.10;99.90
23715;DHT22;12036;50.858;4.472;2023-04-25T08:28:31;11.20;99.90
23715;DHT22;12036;50.858;4.472;2023-04-25T08:30:56;11.40;99.90
23715;DHT22;12036;50.858;4.472;2023-04-25T08:33:22;11.50;99.90
23715;DHT22;12036;50.858;4.472;2023-04-25T08:35:48;11.60;99.90
23715;DHT22;12036;50.858;4.472;2023-04-25T08:38:13;11.70;99.90
23715;DHT22;12036;50.858;4.472;2023-04-25T08:40:40;11.60;99.90
23715;DHT22;12036;50.858;4.472;2023-04-25T08:43:07;11.40;99.90
23715;DHT22;12036;50.858;4.472;2023-04-25T08:45:39;11.30;99.90
23715;DHT22;12036;50.858;4.472;2023-04-25T08:48:13;11.30;99.90
23715;DHT22;12036;50.858;4.472;2023-04-25T08:50:40;11.30;99.90
23715;DHT22;12036;50.858;4.472;2023-04-25T08:53:09;11.70;99.90
23715;DHT22;12036;50.858;4.472;2023-04-25T08:55:41;12.10;99.90
23715;DHT22;12036;50.858;4.472;2023-04-25T08:58:08;12.00;99.90
23715;DHT22;12036;50.858;4.472;2023-04-25T09:00:35;11.80;99.90
23715;DHT22;12036;50.858;4.472;2023-04-25T09:03:01;11.50;99.90
23715;DHT22;12036;50.858;4.472;2023-04-25T09:05:28;11.30;99.90
23715;DHT22;12036;50.858;4.472;2023-04-25T09:07:54;11.30;99.90
23715;DHT22;12036;50.858;4.472;2023-04-25T09:10:22;11.30;99.90
23715;DHT22;12036;50.858;4.472;2023-04-25T09:13:09;11.70;99.90
23715;DHT22;12036;50.858;4.472;2023-04-25T09:15:51;12.50;99.90
23715;DHT22;12036;50.858;4.472;2023-04-25T09:18:28;13.20;99.50
23715;DHT22;12036;50.858;4.472;2023-04-25T09:20:55;13.50;97.30
23715;DHT22;12036;50.858;4.472;2023-04-25T09:23:22;13.40;95.90
23715;DHT22;12036;50.858;4.472;2023-04-25T09:25:50;13.10;93.70
23715;DHT22;12036;50.858;4.472;2023-04-25T09:28:16;12.70;92.90
23715;DHT22;12036;50.858;4.472;2023-04-25T09:30:42;12.10;93.20
23715;DHT22;12036;50.858;4.472;2023-04-25T09:33:09;11.90;94.00
23715;DHT22;12036;50.858;4.472;2023-04-25T09:35:37;11.60;95.00
23715;DHT22;12036;50.858;4.472;2023-04-25T09:38:14;11.50;95.80
23715;DHT22;12036;50.858;4.472;2023-04-25T09:43:20;11.60;95.10
23715;DHT22;12036;50.858;4.472;2023-04-25T09:45:46;12.00;94.40
23715;DHT22;12036;50.858;4.472;2023-04-25T09:48:17;12.30;93.60
23715;DHT22;12036;50.858;4.472;2023-04-25T09:50:44;12.60;93.10
23715;DHT22;12036;50.858;4.472;2023-04-25T09:53:10;13.00;91.60
23715;DHT22;12036;50.858;4.472;2023-04-25T09:55:36;13.20;90.50
23715;DHT22;12036;50.858;4.472;2023-04-25T09:58:06;13.10;92.00
23715;DHT22;12036;50.858;4.472;2023-04-25T10:00:34;13.20;92.20
23715;DHT22;12036;50.858;4.472;2023-04-25T10:03:04;14.10;90.70
23715;DHT22;12036;50.858;4.472;2023-04-25T10:05:32;14.90;83.80
23715;DHT22;12036;50.858;4.472;2023-04-25T10:08:02;14.50;85.90
23715;DHT22;12036;50.858;4.472;2023-04-25T10:10:29;13.80;86.00
23715;DHT22;12036;50.858;4.472;2023-04-25T10:12:58;13.40;87.80
23715;DHT22;12036;50.858;4.472;2023-04-25T10:15:24;13.10;86.30
23715;DHT22;12036;50.858;4.472;2023-04-25T10:17:50;12.90;87.60
23715;DHT22;12036;50.858;4.472;2023-04-25T10:20:16;13.00;90.20
23715;DHT22;12036;50.858;4.472;2023-04-25T10:22:44;14.00;89.90
23715;DHT22;12036;50.858;4.472;2023-04-25T10:25:10;15.60;84.90
23715;DHT22;12036;50.858;4.472;2023-04-25T10:27:36;17.20;75.90
23715;DHT22;12036;50.858;4.472;2023-04-25T10:30:09;18.50;67.50
23715;DHT22;12036;50.858;4.472;2023-04-25T10:32:39;19.40;66.20
23715;DHT22;12036;50.858;4.472;2023-04-25T10:35:11;18.70;58.80
23715;DHT22;12036;50.858;4.472;2023-04-25T10:37:37;18.00;58.90
23715;DHT22;12036;50.858;4.472;2023-04-25T10:40:09;17.50;58.00
23715;DHT22;12036;50.858;4.472;2023-04-25T10:42:35;17.30;58.40
23715;DHT22;12036;50.858;4.472;2023-04-25T10:45:04;16.80;63.80
23715;DHT22;12036;50.858;4.472;2023-04-25T10:47:36;16.60;61.30
23715;DHT22;12036;50.858;4.472;2023-04-25T10:50:08;16.10;57.90
23715;DHT22;12036;50.858;4.472;2023-04-25T10:52:34;15.50;58.40
23715;DHT22;12036;50.858;4.472;2023-04-25T10:55:03;15.20;59.50
23715;DHT22;12036;50.858;4.472;2023-04-25T10:57:37;15.10;60.40
23715;DHT22;12036;50.858;4.472;2023-04-25T11:00:13;15.20;60.00
23715;DHT22;12036;50.858;4.472;2023-04-25T11:02:46;14.80;59.30
23715;DHT22;12036;50.858;4.472;2023-04-25T11:05:29;14.30;61.30
23715;DHT22;12036;50.858;4.472;2023-04-25T11:07:58;13.80;63.60
23715;DHT22;12036;50.858;4.472;2023-04-25T11:10:29;13.50;65.20
23715;DHT22;12036;50.858;4.472;2023-04-25T11:12:56;13.40;65.50
23715;DHT22;12036;50.858;4.472;2023-04-25T11:15:22;13.20;68.70
23715;DHT22;12036;50.858;4.472;2023-04-25T11:17:47;13.00;72.40
23715;DHT22;12036;50.858;4.472;2023-04-25T11:20:13;12.60;76.60
23715;DHT22;12036;50.858;4.472;2023-04-25T11:22:41;12.20;81.70
23715;DHT22;12036;50.858;4.472;2023-04-25T11:25:10;12.20;82.60
23715;DHT22;12036;50.858;4.472;2023-04-25T11:27:50;12.20;84.00
23715;DHT22;12036;50.858;4.472;2023-04-25T11:30:17;12.40;85.20
23715;DHT22;12036;50.858;4.472;2023-04-25T11:32:43;12.70;84.10
23715;DHT22;12036;50.858;4.472;2023-04-25T11:35:12;12.90;81.90
23715;DHT22;12036;50.858;4.472;2023-04-25T11:37:41;13.10;79.60
23715;DHT22;12036;50.858;4.472;2023-04-25T11:40:08;13.20;81.40
23715;DHT22;12036;50.858;4.472;2023-04-25T11:42:37;13.20;81.60
23715;DHT22;12036;50.858;4.472;2023-04-25T11:45:04;13.60;81.80
23715;DHT22;12036;50.858;4.472;2023-04-25T11:47:30;14.30;81.50
23715;DHT22;12036;50.858;4.472;2023-04-25T11:50:01;14.70;77.50
23715;DHT22;12036;50.858;4.472;2023-04-25T11:52:39;15.00;78.70
23715;DHT22;12036;50.858;4.472;2023-04-25T11:55:23;15.10;75.60
23715;DHT22;12036;50.858;4.472;2023-04-25T11:57:49;15.20;74.20
23715;DHT22;12036;50.858;4.472;2023-04-25T12:00:18;15.00;72.00
23715;DHT22;12036;50.858;4.472;2023-04-25T12:02:47;14.90;69.00
23715;DHT22;12036;50.858;4.472;2023-04-25T12:05:14;14.50;70.00
23715;DHT22;12036;50.858;4.472;2023-04-25T12:07:43;14.20;71.80
23715;DHT22;12036;50.858;4.472;2023-04-25T12:10:11;14.20;71.20
23715;DHT22;12036;50.858;4.472;2023-04-25T12:12:38;14.40;69.80
23715;DHT22;12036;50.858;4.472;2023-04-25T12:15:16;14.30;67.60
23715;DHT22;12036;50.858;4.472;2023-04-25T12:17:49;14.30;67.50
23715;DHT22;12036;50.858;4.472;2023-04-25T12:20:15;14.20;70.10
23715;DHT22;12036;50.858;4.472;2023-04-25T12:22:44;14.00;71.70
23715;DHT22;12036;50.858;4.472;2023-04-25T12:28:19;14.10;69.60
23715;DHT22;12036;50.858;4.472;2023-04-25T12:31:11;14.20;66.60
23715;DHT22;12036;50.858;4.472;2023-04-25T12:33:37;14.10;67.00
23715;DHT22;12036;50.858;4.472;2023-04-25T12:36:05;14.00;68.60
23715;DHT22;12036;50.858;4.472;2023-04-25T12:38:39;14.20;64.10
23715;DHT22;12036;50.858;4.472;2023-04-25T12:41:05;14.00;65.60
23715;DHT22;12036;50.858;4.472;2023-04-25T12:43:31;14.00;63.30
23715;DHT22;12036;50.858;4.472;2023-04-25T12:45:57;14.20;62.00
23715;DHT22;12036;50.858;4.472;2023-04-25T12:48:23;14.60;60.20
23715;DHT22;12036;50.858;4.472;2023-04-25T12:50:49;15.10;59.60
23715;DHT22;12036;50.858;4.472;2023-04-25T12:53:18;15.10;59.40
23715;DHT22;12036;50.858;4.472;2023-04-25T12:55:44;14.70;59.30
23715;DHT22;12036;50.858;4.472;2023-04-25T12:58:14;14.40;61.80
23715;DHT22;12036;50.858;4.472;2023-04-25T13:00:39;14.50;61.20
23715;DHT22;12036;50.858;4.472;2023-04-25T13:03:05;14.30;61.20
23715;DHT22;12036;50.858;4.472;2023-04-25T13:05:31;14.20;61.80
23715;DHT22;12036;50.858;4.472;2023-04-25T13:07:57;14.00;63.30
23715;DHT22;12036;50.858;4.472;2023-04-25T13:10:22;13.80;64.80
23715;DHT22;12036;50.858;4.472;2023-04-25T13:12:48;13.80;64.90
23715;DHT22;12036;50.858;4.472;2023-04-25T13:15:14;13.60;67.10
23715;DHT22;12036;50.858;4.472;2023-04-25T13:17:41;13.70;67.20
23715;DHT22;12036;50.858;4.472;2023-04-25T13:20:07;13.70;65.70
23715;DHT22;12036;50.858;4.472;2023-04-25T13:22:38;13.70;69.50
23715;DHT22;12036;50.858;4.472;2023-04-25T13:25:06;13.80;70.20
23715;DHT22;12036;50.858;4.472;2023-04-25T13:27:33;13.90;67.70
23715;DHT22;12036;50.858;4.472;2023-04-25T13:30:00;14.20;65.80
23715;DHT22;12036;50.858;4.472;2023-04-25T13:32:26;14.40;63.80
23715;DHT22;12036;50.858;4.472;2023-04-25T13:34:53;14.40;65.00
23715;DHT22;12036;50.858;4.472;2023-04-25T13:37:18;14.30;62.60
23715;DHT22;12036;50.858;4.472;2023-04-25T13:39:44;13.80;65.80
23715;DHT22;12036;50.858;4.472;2023-04-25T13:42:10;13.60;67.70
23715;DHT22;12036;50.858;4.472;2023-04-25T13:44:36;13.70;68.70
23715;DHT22;12036;50.858;4.472;2023-04-25T13:47:03;13.90;67.40
23715;DHT22;12036;50.858;4.472;2023-04-25T13:49:28;14.20;66.60
23715;DHT22;12036;50.858;4.472;2023-04-25T13:51:54;14.30;65.30
23715;DHT22;12036;50.858;4.472;2023-04-25T13:54:20;14.50;63.60
23715;DHT22;12036;50.858;4.472;2023-04-25T13:56:46;14.80;61.00
23715;DHT22;12036;50.858;4.472;2023-04-25T13:59:11;14.70;60.80
23715;DHT22;12036;50.858;4.472;2023-04-25T14:01:37;14.40;62.70
23715;DHT22;12036;50.858;4.472;2023-04-25T14:04:03;14.00;65.90
23715;DHT22;12036;50.858;4.472;2023-04-25T14:06:30;13.60;67.70
23715;DHT22;12036;50.858;4.472;2023-04-25T14:08:56;13.30;70.60
23715;DHT22;12036;50.858;4.472;2023-04-25T14:11:22;13.50;70.20
23715;DHT22;12036;50.858;4.472;2023-04-25T14:13:48;13.80;65.80
23715;DHT22;12036;50.858;4.472;2023-04-25T14:16:15;14.00;65.90
23715;DHT22;12036;50.858;4.472;2023-04-25T14:18:41;14.20;64.10
23715;DHT22;12036;50.858;4.472;2023-04-25T14:21:07;14.30;64.60
23715;DHT22;12036;50.858;4.472;2023-04-25T14:23:32;14.40;67.10
23715;DHT22;12036;50.858;4.472;2023-04-25T14:25:58;14.30;63.10
23715;DHT22;12036;50.858;4.472;2023-04-25T14:28:23;14.30;61.10
23715;DHT22;12036;50.858;4.472;2023-04-25T14:30:49;14.20;60.50
23715;DHT22;12036;50.858;4.472;2023-04-25T14:33:15;14.20;60.60
23715;DHT22;12036;50.858;4.472;2023-04-25T14:35:40;14.10;59.60
23715;DHT22;12036;50.858;4.472;2023-04-25T14:38:06;14.20;60.10
23715;DHT22;12036;50.858;4.472;2023-04-25T14:40:33;14.20;60.30
23715;DHT22;12036;50.858;4.472;2023-04-25T14:42:58;14.30;60.90
23715;DHT22;12036;50.858;4.472;2023-04-25T14:45:24;14.30;60.70
23715;DHT22;12036;50.858;4.472;2023-04-25T14:47:50;14.10;62.50
23715;DHT22;12036;50.858;4.472;2023-04-25T14:50:16;14.20;61.40
23715;DHT22;12036;50.858;4.472;2023-04-25T14:52:41;14.20;61.00
23715;DHT22;12036;50.858;4.472;2023-04-25T14:55:08;14.30;61.20
23715;DHT22;12036;50.858;4.472;2023-04-25T14:57:34;14.00;61.70
23715;DHT22;12036;50.858;4.472;2023-04-25T15:00:00;13.80;62.60
23715;DHT22;12036;50.858;4.472;2023-04-25T15:02:27;13.50;63.00
23715;DHT22;12036;50.858;4.472;2023-04-25T15:04:53;13.10;63.90
23715;DHT22;12036;50.858;4.472;2023-04-25T15:07:21;13.10;62.70
23715;DHT22;12036;50.858;4.472;2023-04-25T15:09:47;13.10;62.60
23715;DHT22;12036;50.858;4.472;2023-04-25T15:12:13;13.10;64.60
23715;DHT22;12036;50.858;4.472;2023-04-25T15:14:39;12.90;64.40
23715;DHT22;12036;50.858;4.472;2023-04-25T15:17:05;12.70;64.30
23715;DHT22;12036;50.858;4.472;2023-04-25T15:19:31;12.50;65.80
23715;DHT22;12036;50.858;4.472;2023-04-25T15:21:57;12.50;66.00
23715;DHT22;12036;50.858;4.472;2023-04-25T15:24:25;12.40;66.60
23715;DHT22;12036;50.858;4.472;2023-04-25T15:26:51;12.40;66.30
23715;DHT22;12036;50.858;4.472;2023-04-25T15:29:17;12.40;67.20
23715;DHT22;12036;50.858;4.472;2023-04-25T15:31:43;12.60;67.10
23715;DHT22;12036;50.858;4.472;2023-04-25T15:34:09;12.80;64.20
23715;DHT22;12036;50.858;4.472;2023-04-25T15:36:34;12.90;65.10
23715;DHT22;12036;50.858;4.472;2023-04-25T15:39:00;13.00;62.70
23715;DHT22;12036;50.858;4.472;2023-04-25T15:41:26;12.90;63.00